createdAt,value
2022-08-22T00:00:14.283Z,15.80
2022-08-22T00:02:54.721Z,17.08
2022-08-22T00:03:09.681Z,16.57
2022-08-22T00:03:12.643Z,19.93
2022-08-22T00:03:15.146Z,16.16
2022-08-22T00:06:09.924Z,15.56
2022-08-22T00:08:57.932Z,15.57
2022-08-22T00:11:46.493Z,15.56
2022-08-22T00:14:25.578Z,15.53
2022-08-22T00:17:09.814Z,15.52
2022-08-22T00:19:55.496Z,15.50
2022-08-22T00:22:39.095Z,15.47
2022-08-22T00:25:25.943Z,15.42
2022-08-22T00:28:07.986Z,15.34
2022-08-22T00:30:45.160Z,15.29
2022-08-22T00:33:22.267Z,15.23
2022-08-22T00:35:57.135Z,15.19
2022-08-22T00:38:32.729Z,15.14
2022-08-22T00:41:33.782Z,15.16
2022-08-22T00:44:12.193Z,15.17
2022-08-22T00:47:03.679Z,15.16
2022-08-22T00:50:03.541Z,15.10
2022-08-22T00:52:53.900Z,15.08
2022-08-22T00:55:53.487Z,15.07
2022-08-22T00:58:45.144Z,15.06
2022-08-22T01:01:14.493Z,15.06
2022-08-22T01:03:49.993Z,15.02
2022-08-22T01:06:22.326Z,15.02
2022-08-22T01:09:00.223Z,15.02
2022-08-22T01:11:54.557Z,15.02
2022-08-22T01:14:47.575Z,14.98
2022-08-22T01:17:51.421Z,14.95
2022-08-22T01:20:54.719Z,14.91
2022-08-22T01:23:51.227Z,14.86
2022-08-22T01:26:50.551Z,14.82
2022-08-22T01:29:54.903Z,14.82
2022-08-22T01:32:57.148Z,14.78
2022-08-22T01:35:47.325Z,14.73
2022-08-22T01:38:32.969Z,14.67
2022-08-22T01:41:25.273Z,14.62
2022-08-22T01:44:01.332Z,14.62
2022-08-22T01:46:44.569Z,14.63
2022-08-22T01:49:25.061Z,14.61
2022-08-22T01:52:19.496Z,14.62
2022-08-22T01:55:00.749Z,14.58
2022-08-22T01:57:27.927Z,14.57
2022-08-22T01:59:59.218Z,14.51
2022-08-22T02:03:02.645Z,14.48
2022-08-22T02:05:45.394Z,14.48
2022-08-22T02:08:25.566Z,14.48
2022-08-22T02:11:09.423Z,14.48
2022-08-22T02:14:00.764Z,14.44
2022-08-22T02:16:37.945Z,14.37
2022-08-22T02:19:10.094Z,14.29
2022-08-22T02:21:42.951Z,14.29
2022-08-22T02:24:22.711Z,14.30
2022-08-22T02:27:22.801Z,14.20
2022-08-22T02:30:06.097Z,14.20
2022-08-22T02:33:19.355Z,14.17
2022-08-22T02:35:56.200Z,14.15
2022-08-22T02:38:36.644Z,14.11
2022-08-22T02:41:29.155Z,14.11
2022-08-22T02:44:20.983Z,14.06
2022-08-22T02:47:08.142Z,14.05
2022-08-22T02:49:44.034Z,14.04
2022-08-22T02:52:21.244Z,14.02
2022-08-22T02:54:55.400Z,14.01
2022-08-22T02:57:31.660Z,13.95
2022-08-22T03:00:31.945Z,13.92
2022-08-22T03:02:59.441Z,13.90
2022-08-22T03:05:36.639Z,13.87
2022-08-22T03:08:12.989Z,13.81
2022-08-22T03:10:45.288Z,13.82
2022-08-22T03:13:18.384Z,13.80
2022-08-22T03:15:54.787Z,13.78
2022-08-22T03:18:53.602Z,13.83
2022-08-22T03:21:41.549Z,13.80
2022-08-22T03:24:33.192Z,13.77
2022-08-22T03:27:10.339Z,13.76
2022-08-22T03:29:42.794Z,13.76
2022-08-22T03:32:22.048Z,13.75
2022-08-22T03:35:01.530Z,13.70
2022-08-22T03:37:36.800Z,13.72
2022-08-22T03:40:29.716Z,13.74
2022-08-22T03:43:39.232Z,13.69
2022-08-22T03:46:24.297Z,13.66
2022-08-22T03:49:36.591Z,13.57
2022-08-22T03:52:24.616Z,13.58
2022-08-22T03:55:13.855Z,13.61
2022-08-22T03:57:50.041Z,13.58
2022-08-22T04:00:21.751Z,13.56
2022-08-22T04:03:17.708Z,13.55
2022-08-22T04:06:11.517Z,13.57
2022-08-22T04:09:11.437Z,13.53
2022-08-22T04:11:53.433Z,13.48
2022-08-22T04:14:43.890Z,13.46
2022-08-22T04:17:47.661Z,13.43
2022-08-22T04:20:36.223Z,13.37
2022-08-22T04:23:35.456Z,13.36
2022-08-22T04:26:21.238Z,13.40
2022-08-22T04:29:02.553Z,13.33
2022-08-22T04:31:47.459Z,13.35
2022-08-22T04:34:26.317Z,13.29
2022-08-22T04:37:04.158Z,13.33
2022-08-22T04:39:45.715Z,13.30
2022-08-22T04:42:33.048Z,13.27
2022-08-22T04:45:14.047Z,13.28
2022-08-22T04:47:53.955Z,13.30
2022-08-22T04:50:34.669Z,13.30
2022-08-22T04:53:27.019Z,13.33
2022-08-22T04:56:19.838Z,13.36
2022-08-22T04:59:00.136Z,13.39
2022-08-22T05:01:45.598Z,13.43
2022-08-22T05:04:28.495Z,13.45
2022-08-22T05:07:16.576Z,13.45
2022-08-22T05:09:47.166Z,13.54
2022-08-22T05:12:19.119Z,13.54
2022-08-22T05:14:51.961Z,13.51
2022-08-22T05:17:23.903Z,13.61
2022-08-22T05:19:55.093Z,13.61
2022-08-22T05:22:27.950Z,13.67
2022-08-22T05:25:01.928Z,13.66
2022-08-22T05:27:41.650Z,13.79
2022-08-22T05:30:12.384Z,13.83
2022-08-22T05:32:51.977Z,13.84
2022-08-22T05:35:24.832Z,13.90
2022-08-22T05:37:54.398Z,13.96
2022-08-22T05:40:24.863Z,14.01
2022-08-22T05:42:53.556Z,13.99
2022-08-22T05:45:22.524Z,14.03
2022-08-22T05:47:57.539Z,14.10
2022-08-22T05:50:41.712Z,14.19
2022-08-22T05:53:17.408Z,14.29
2022-08-22T05:56:18.438Z,14.32
2022-08-22T05:59:13.708Z,14.36
2022-08-22T06:01:59.626Z,14.45
2022-08-22T06:04:35.067Z,14.49
2022-08-22T06:07:10.096Z,14.54
2022-08-22T06:09:57.974Z,14.66
2022-08-22T06:12:33.524Z,14.73
2022-08-22T06:15:20.964Z,14.79
2022-08-22T06:17:50.776Z,14.93
2022-08-22T06:20:24.560Z,14.93
2022-08-22T06:22:55.820Z,15.06
2022-08-22T06:25:26.752Z,15.17
2022-08-22T06:27:54.379Z,15.24
2022-08-22T06:30:22.065Z,15.28
2022-08-22T06:33:00.034Z,15.36
2022-08-22T06:35:33.562Z,15.46
2022-08-22T06:38:00.706Z,15.56
2022-08-22T06:40:29.314Z,15.61
2022-08-22T06:42:57.455Z,15.73
2022-08-22T06:45:31.762Z,15.80
2022-08-22T06:48:07.259Z,15.94
2022-08-22T06:50:40.995Z,15.98
2022-08-22T06:53:34.527Z,16.13
2022-08-22T06:56:03.611Z,16.24
2022-08-22T06:58:34.796Z,16.48
2022-08-22T07:01:24.882Z,16.57
2022-08-22T07:04:04.946Z,16.65
2022-08-22T07:06:44.129Z,16.67
2022-08-22T07:09:27.502Z,16.73
2022-08-22T07:11:57.398Z,16.78
2022-08-22T07:14:32.354Z,16.89
2022-08-22T07:17:04.718Z,16.99
2022-08-22T07:19:35.963Z,17.15
2022-08-22T07:22:23.476Z,17.22
2022-08-22T07:25:03.194Z,17.32
2022-08-22T07:28:01.375Z,17.37
2022-08-22T07:30:42.461Z,17.54
2022-08-22T07:33:38.966Z,17.70
2022-08-22T07:36:22.987Z,17.81
2022-08-22T07:39:02.279Z,17.96
2022-08-22T07:41:58.473Z,18.12
2022-08-22T07:44:32.538Z,18.28
2022-08-22T07:47:07.068Z,18.63
2022-08-22T07:49:57.553Z,18.74
2022-08-22T07:52:26.051Z,18.76
2022-08-22T07:55:20.533Z,18.79
2022-08-22T07:57:53.876Z,18.88
2022-08-22T08:00:22.689Z,19.04
2022-08-22T08:02:57.521Z,19.16
2022-08-22T08:05:26.814Z,19.25
2022-08-22T08:07:56.173Z,19.40
2022-08-22T08:10:28.133Z,19.50
2022-08-22T08:13:02.464Z,19.58
2022-08-22T08:15:31.800Z,19.75
2022-08-22T08:18:04.316Z,19.85
2022-08-22T08:20:34.332Z,20.17
2022-08-22T08:23:01.646Z,20.29
2022-08-22T08:25:30.953Z,20.29
2022-08-22T08:27:59.462Z,20.59
2022-08-22T08:30:38.699Z,20.65
2022-08-22T08:33:25.195Z,20.72
2022-08-22T08:36:09.423Z,20.78
2022-08-22T08:38:45.395Z,20.84
2022-08-22T08:41:31.914Z,21.02
2022-08-22T08:44:01.189Z,21.30
2022-08-22T08:46:55.559Z,21.32
2022-08-22T08:49:38.779Z,21.48
2022-08-22T08:52:24.420Z,21.65
2022-08-22T08:55:01.527Z,21.85
2022-08-22T08:57:44.658Z,22.19
2022-08-22T09:00:20.018Z,22.94
2022-08-22T09:02:49.410Z,23.52
2022-08-22T09:05:30.975Z,23.95
2022-08-22T09:08:19.418Z,24.16
2022-08-22T09:11:09.820Z,24.19
2022-08-22T09:14:19.910Z,24.33
2022-08-22T09:17:04.624Z,24.78
2022-08-22T09:20:17.719Z,25.30
2022-08-22T09:22:50.708Z,25.79
2022-08-22T09:25:41.246Z,26.17
2022-08-22T09:28:23.135Z,26.83
2022-08-22T09:31:17.014Z,27.46
2022-08-22T09:34:05.135Z,27.98
2022-08-22T09:37:00.928Z,28.32
2022-08-22T09:40:04.779Z,28.79
2022-08-22T09:42:40.366Z,29.23
2022-08-22T09:45:11.325Z,29.38
2022-08-22T09:47:58.126Z,29.59
2022-08-22T09:50:56.468Z,30.30
2022-08-22T09:54:10.590Z,29.58
2022-08-22T09:56:52.078Z,29.27
2022-08-22T09:59:28.417Z,29.01
2022-08-22T10:02:15.656Z,28.82
2022-08-22T10:04:48.919Z,28.64
2022-08-22T10:07:35.143Z,28.42
2022-08-22T10:10:13.040Z,28.38
2022-08-22T10:12:58.854Z,28.47
2022-08-22T10:15:42.705Z,28.30
2022-08-22T10:18:31.623Z,28.21
2022-08-22T10:21:25.068Z,28.25
2022-08-22T10:24:25.338Z,28.18
2022-08-22T10:27:07.142Z,28.07
2022-08-22T10:29:52.819Z,28.07
2022-08-22T10:32:34.392Z,28.12
2022-08-22T10:35:33.750Z,28.31
2022-08-22T10:38:12.310Z,28.35
2022-08-22T10:40:53.285Z,28.30
2022-08-22T10:43:29.091Z,28.28
2022-08-22T10:46:12.557Z,28.18
2022-08-22T10:48:56.257Z,28.18
2022-08-22T10:51:49.441Z,28.10
2022-08-22T10:54:42.000Z,28.11
2022-08-22T10:57:23.080Z,28.10
2022-08-22T11:00:15.848Z,28.19
2022-08-22T11:03:27.699Z,28.07
2022-08-22T11:06:22.242Z,27.99
2022-08-22T11:09:04.611Z,27.93
2022-08-22T11:11:39.667Z,27.84
2022-08-22T11:14:17.689Z,27.74
2022-08-22T11:17:01.732Z,27.62
2022-08-22T11:20:23.719Z,27.73
2022-08-22T11:23:19.387Z,27.72
2022-08-22T11:26:29.925Z,27.69
2022-08-22T11:29:23.196Z,27.58
2022-08-22T11:32:16.476Z,27.47
2022-08-22T11:35:13.760Z,27.46
2022-08-22T11:38:00.548Z,27.49
2022-08-22T11:40:46.058Z,27.72
2022-08-22T11:43:32.518Z,27.83
2022-08-22T11:46:04.652Z,27.60
2022-08-22T11:49:04.514Z,27.74
2022-08-22T11:52:08.616Z,27.66
2022-08-22T11:54:45.852Z,27.48
2022-08-22T11:57:18.633Z,27.58
2022-08-22T11:59:44.925Z,27.47
2022-08-22T12:02:19.606Z,27.49
2022-08-22T12:04:55.738Z,27.54
2022-08-22T12:07:33.237Z,27.61
2022-08-22T12:10:15.278Z,27.51
2022-08-22T12:13:03.301Z,27.42
2022-08-22T12:15:46.202Z,27.39
2022-08-22T12:18:41.254Z,27.53
2022-08-22T12:21:22.673Z,27.63
2022-08-22T12:24:00.957Z,27.75
2022-08-22T12:27:10.506Z,27.79
2022-08-22T12:30:04.825Z,27.78
2022-08-22T12:32:58.870Z,27.86
2022-08-22T12:35:38.295Z,28.03
2022-08-22T12:38:28.947Z,27.94
2022-08-22T12:41:35.534Z,28.16
2022-08-22T12:44:19.599Z,28.17
2022-08-22T12:47:21.330Z,28.06
2022-08-22T12:50:21.654Z,28.12
2022-08-22T12:53:09.110Z,28.20
2022-08-22T12:55:52.765Z,28.11
2022-08-22T12:58:51.944Z,28.03
2022-08-22T13:01:19.343Z,28.12
2022-08-22T13:03:56.858Z,28.12
2022-08-22T13:06:35.141Z,28.29
2022-08-22T13:09:37.420Z,28.35
2022-08-22T13:12:31.084Z,28.24
2022-08-22T13:15:06.778Z,28.21
2022-08-22T13:17:37.532Z,28.20
2022-08-22T13:20:32.832Z,28.13
2022-08-22T13:23:05.149Z,28.14
2022-08-22T13:26:01.182Z,28.04
2022-08-22T13:28:30.154Z,28.01
2022-08-22T13:30:58.415Z,28.04
2022-08-22T13:33:33.013Z,28.07
2022-08-22T13:36:10.838Z,28.28
2022-08-22T13:38:49.178Z,28.36
2022-08-22T13:41:29.032Z,28.27
2022-08-22T13:44:33.312Z,28.08
2022-08-22T13:47:14.138Z,28.05
2022-08-22T13:49:46.646Z,28.04
2022-08-22T13:52:29.073Z,28.03
2022-08-22T13:55:12.448Z,28.17
2022-08-22T13:58:03.156Z,28.17
2022-08-22T14:00:58.170Z,28.22
2022-08-22T14:03:35.016Z,28.34
2022-08-22T14:06:37.171Z,28.49
2022-08-22T14:09:03.554Z,28.48
2022-08-22T14:11:49.132Z,28.68
2022-08-22T14:14:27.878Z,28.50
2022-08-22T14:16:59.273Z,28.32
2022-08-22T14:19:52.916Z,28.54
2022-08-22T14:22:32.552Z,28.55
2022-08-22T14:25:18.861Z,28.52
2022-08-22T14:27:51.150Z,28.28
2022-08-22T14:30:21.320Z,28.28
2022-08-22T14:32:56.232Z,28.43
2022-08-22T14:35:41.304Z,28.35
2022-08-22T14:38:17.216Z,28.22
2022-08-22T14:40:45.534Z,28.36
2022-08-22T14:43:25.155Z,28.22
2022-08-22T14:46:05.674Z,28.08
2022-08-22T14:48:43.728Z,28.06
2022-08-22T14:51:19.876Z,27.94
2022-08-22T14:53:47.747Z,27.98
2022-08-22T14:56:29.536Z,28.19
2022-08-22T14:59:08.478Z,28.13
2022-08-22T15:01:54.542Z,28.13
2022-08-22T15:04:40.992Z,28.20
2022-08-22T15:07:09.507Z,28.09
2022-08-22T15:09:43.276Z,28.20
2022-08-22T15:12:33.973Z,28.22
2022-08-22T15:15:04.833Z,28.11
2022-08-22T15:17:45.155Z,28.24
2022-08-22T15:20:27.633Z,28.22
2022-08-22T15:23:10.205Z,28.28
2022-08-22T15:25:41.263Z,28.32
2022-08-22T15:28:20.065Z,28.36
2022-08-22T15:30:59.241Z,28.38
2022-08-22T15:33:39.528Z,28.49
2022-08-22T15:36:27.425Z,28.32
2022-08-22T15:39:28.449Z,28.10
2022-08-22T15:41:56.779Z,28.29
2022-08-22T15:44:31.117Z,28.15
2022-08-22T15:47:24.169Z,28.04
2022-08-22T15:50:00.220Z,28.06
2022-08-22T15:52:33.006Z,28.24
2022-08-22T15:55:15.717Z,28.20
2022-08-22T15:57:50.955Z,28.17
2022-08-22T16:00:24.086Z,28.15
2022-08-22T16:03:04.623Z,28.07
2022-08-22T16:05:33.766Z,27.95
2022-08-22T16:08:03.270Z,27.88
2022-08-22T16:10:37.437Z,27.84
2022-08-22T16:13:37.991Z,28.00
2022-08-22T16:16:06.905Z,27.79
2022-08-22T16:18:33.185Z,27.70
2022-08-22T16:21:08.889Z,27.59
2022-08-22T16:23:50.529Z,27.51
2022-08-22T16:26:23.546Z,27.52
2022-08-22T16:28:59.633Z,27.49
2022-08-22T16:31:44.567Z,27.42
2022-08-22T16:34:17.059Z,27.34
2022-08-22T16:37:12.573Z,27.36
2022-08-22T16:39:46.498Z,27.25
2022-08-22T16:42:12.844Z,27.30
2022-08-22T16:44:45.586Z,27.17
2022-08-22T16:47:30.228Z,27.19
2022-08-22T16:50:17.601Z,27.07
2022-08-22T16:53:00.154Z,27.05
2022-08-22T16:55:29.492Z,27.06
2022-08-22T16:58:07.249Z,27.02
2022-08-22T17:00:37.094Z,27.12
2022-08-22T17:03:09.470Z,27.06
2022-08-22T17:05:51.143Z,27.14
2022-08-22T17:08:47.718Z,27.22
2022-08-22T17:11:52.683Z,27.15
2022-08-22T17:14:47.426Z,27.24
2022-08-22T17:17:31.852Z,27.08
2022-08-22T17:20:22.258Z,26.98
2022-08-22T17:23:06.582Z,26.80
2022-08-22T17:25:46.428Z,26.68
2022-08-22T17:28:36.863Z,26.56
2022-08-22T17:31:31.702Z,26.53
2022-08-22T17:34:20.032Z,26.64
2022-08-22T17:37:08.542Z,26.56
2022-08-22T17:40:15.818Z,26.44
2022-08-22T17:42:54.184Z,26.49
2022-08-22T17:45:43.052Z,26.42
2022-08-22T17:48:19.658Z,26.28
2022-08-22T17:50:55.495Z,26.12
2022-08-22T17:53:27.570Z,26.07
2022-08-22T17:55:57.172Z,25.99
2022-08-22T17:58:37.619Z,25.94
2022-08-22T18:01:34.507Z,25.80
2022-08-22T18:04:03.681Z,25.71
2022-08-22T18:06:36.262Z,25.66
2022-08-22T18:09:16.274Z,25.68
2022-08-22T18:11:51.938Z,25.78
2022-08-22T18:14:30.029Z,25.60
2022-08-22T18:16:58.333Z,25.47
2022-08-22T18:20:02.466Z,25.33
2022-08-22T18:22:56.563Z,25.15
2022-08-22T18:25:22.978Z,25.09
2022-08-22T18:28:08.720Z,25.01
2022-08-22T18:30:48.959Z,24.93
2022-08-22T18:33:34.626Z,24.90
2022-08-22T18:36:10.668Z,24.91
2022-08-22T18:38:57.636Z,24.80
2022-08-22T18:41:36.590Z,24.69
2022-08-22T18:44:22.931Z,24.59
2022-08-22T18:46:57.985Z,24.53
2022-08-22T18:49:24.610Z,24.45
2022-08-22T18:52:05.993Z,24.49
2022-08-22T18:55:00.270Z,24.37
2022-08-22T18:57:49.671Z,24.29
2022-08-22T19:00:22.262Z,24.18
2022-08-22T19:03:03.650Z,24.10
2022-08-22T19:06:01.599Z,24.12
2022-08-22T19:08:56.401Z,24.03
2022-08-22T19:11:33.833Z,23.94
2022-08-22T19:14:16.349Z,23.87
2022-08-22T19:16:53.713Z,23.80
2022-08-22T19:19:58.684Z,23.80
2022-08-22T19:22:32.317Z,23.66
2022-08-22T19:25:11.523Z,23.60
2022-08-22T19:27:41.616Z,23.51
2022-08-22T19:30:33.626Z,23.43
2022-08-22T19:33:07.810Z,23.41
2022-08-22T19:36:04.931Z,23.40
2022-08-22T19:38:54.624Z,23.24
2022-08-22T19:41:40.062Z,23.17
2022-08-22T19:44:37.403Z,23.12
2022-08-22T19:47:19.116Z,23.04
2022-08-22T19:49:54.541Z,22.93
2022-08-22T19:52:30.239Z,22.93
2022-08-22T19:55:23.611Z,22.92
2022-08-22T19:57:53.240Z,22.99
2022-08-22T20:00:24.614Z,22.84
2022-08-22T20:03:21.878Z,22.83
2022-08-22T20:06:43.123Z,22.72
2022-08-22T20:09:26.910Z,22.69
2022-08-22T20:12:06.913Z,22.64
2022-08-22T20:14:36.083Z,22.66
2022-08-22T20:17:23.988Z,22.56
2022-08-22T20:20:35.149Z,22.49
2022-08-22T20:23:22.865Z,22.41
2022-08-22T20:25:52.189Z,22.37
2022-08-22T20:28:27.657Z,22.36
2022-08-22T20:30:59.497Z,22.45
2022-08-22T20:33:33.951Z,22.35
2022-08-22T20:36:13.797Z,22.21
2022-08-22T20:38:56.604Z,22.14
2022-08-22T20:41:32.353Z,22.14
2022-08-22T20:44:10.259Z,22.11
2022-08-22T20:46:53.497Z,22.06
2022-08-22T20:49:24.796Z,22.02
2022-08-22T20:52:01.525Z,22.02
2022-08-22T20:54:37.313Z,21.94
2022-08-22T20:57:13.370Z,21.91
2022-08-22T20:59:49.061Z,21.85
2022-08-22T21:02:23.179Z,21.79
2022-08-22T21:05:00.228Z,21.74
2022-08-22T21:07:28.330Z,21.71
2022-08-22T21:09:57.945Z,21.66
2022-08-22T21:12:24.443Z,21.59
2022-08-22T21:14:50.791Z,21.55
2022-08-22T21:17:17.171Z,21.53
2022-08-22T21:19:43.636Z,21.47
2022-08-22T21:22:28.846Z,21.45
2022-08-22T21:24:57.256Z,21.43
2022-08-22T21:27:31.468Z,21.34
2022-08-22T21:30:01.898Z,21.38
2022-08-22T21:32:36.554Z,21.30
2022-08-22T21:35:05.518Z,21.25
2022-08-22T21:37:44.843Z,21.20
2022-08-22T21:40:21.395Z,21.11
2022-08-22T21:43:05.085Z,21.01
2022-08-22T21:45:37.308Z,20.96
2022-08-22T21:48:34.223Z,20.84
2022-08-22T21:51:37.907Z,20.75
2022-08-22T21:54:26.401Z,20.67
2022-08-22T21:56:55.378Z,20.57
2022-08-22T21:59:50.968Z,20.48
2022-08-22T22:02:37.035Z,20.36
2022-08-22T22:05:11.322Z,20.26
2022-08-22T22:07:40.963Z,20.19
2022-08-22T22:10:10.116Z,20.17
2022-08-22T22:12:39.655Z,20.13
2022-08-22T22:15:06.713Z,20.08
2022-08-22T22:17:33.293Z,19.99
2022-08-22T22:19:59.892Z,19.89
2022-08-22T22:22:26.537Z,19.86
2022-08-22T22:24:52.945Z,19.78
2022-08-22T22:27:19.285Z,19.80
2022-08-22T22:29:45.661Z,19.72
2022-08-22T22:32:12.361Z,19.65
2022-08-22T22:34:38.784Z,19.63
2022-08-22T22:37:07.551Z,19.57
2022-08-22T22:39:35.938Z,19.51
2022-08-22T22:42:03.376Z,19.43
2022-08-22T22:44:29.797Z,19.36
2022-08-22T22:46:57.624Z,19.27
2022-08-22T22:49:24.434Z,19.23
2022-08-22T22:51:50.917Z,19.17
2022-08-22T22:54:17.497Z,19.18
2022-08-22T22:56:44.164Z,19.15
2022-08-22T22:59:14.702Z,19.08
2022-08-22T23:02:21.603Z,19.01
2022-08-22T23:04:50.864Z,18.97
2022-08-22T23:07:22.306Z,18.94
2022-08-22T23:09:48.887Z,18.89
2022-08-22T23:12:16.134Z,18.83
2022-08-22T23:14:42.827Z,18.79
2022-08-22T23:17:09.262Z,18.74
2022-08-22T23:19:35.883Z,18.68
2022-08-22T23:22:02.344Z,18.65
2022-08-22T23:24:30.446Z,18.64
2022-08-22T23:26:57.509Z,18.61
2022-08-22T23:29:24.661Z,18.57
2022-08-22T23:32:02.177Z,18.55
2022-08-22T23:34:35.745Z,18.55
2022-08-22T23:37:06.431Z,18.59
2022-08-22T23:39:34.590Z,18.59
2022-08-22T23:42:02.213Z,18.56
2022-08-22T23:44:31.393Z,18.54
2022-08-22T23:46:58.813Z,18.58
2022-08-22T23:49:26.455Z,18.55
2022-08-22T23:51:53.011Z,18.55
2022-08-22T23:54:19.506Z,18.49
2022-08-22T23:56:49.533Z,18.45
2022-08-22T23:59:19.117Z,18.45
